Utah State University
, Logan
Last Weather Update:08/30/2011 11:00:00 PM
Date
ETo
ETc
Rain
Irrigation
Req
Temp
Max
Temp
Min
Temp
Avg
Avg RH
Avg Wind
Avg Solar
inches
inches
incehs
inches
F
F
F
%
%
watts/m2
07/01/2011 0.24" 0.19" 0.01" 0.18" 82.8° 53.9° 68.2° 44.1% 3.5 MPH 347.1w/m2
07/02/2011 0.26" 0.21" 0.05" 0.17" 91.8° 57.1° 72.9° 37.8% 4.2 MPH 344.4w/m2
07/03/2011 0.30" 0.24" 0.00" 0.24" 96.0° 63.8° 79.0° 29.6% 5.5 MPH 350.4w/m2
07/04/2011 0.17" 0.14" 0.00" 0.14" 88.0° 67.0° 75.3° 38.9% 4.3 MPH 184.6w/m2
07/05/2011 0.15" 0.12" 0.00" 0.12" 81.5° 65.6° 73.3° 47.1% 4.1 MPH 164.3w/m2
07/06/2011 0.25" 0.20" 0.00" 0.20" 88.8° 58.4° 73.5° 44.9% 3.9 MPH 338.2w/m2
07/07/2011 0.10" 0.09" 0.10" 0.01" 74.6° 62.9° 68.4° 61.7% 5.1 MPH 104.1w/m2
07/08/2011 0.21" 0.17" 0.00" 0.17" 83.5° 59.3° 68.0° 61.7% 4.3 MPH 277.9w/m2
07/09/2011 0.23" 0.19" 0.44" -0.16" 86.6° 55.3° 67.4° 60.2% 4.7 MPH 302.9w/m2
07/10/2011 0.24" 0.20" 0.00" 0.20" 87.1° 58.3° 70.8° 54.6% 4.6 MPH 310.8w/m2
07/11/2011 0.25" 0.21" 0.01" 0.20" 87.7° 58.5° 72.9° 45.9% 3.7 MPH 333.2w/m2
07/12/2011 0.18" 0.15" 0.04" 0.12" 85.2° 63.3° 71.6° 48.6% 5.4 MPH 203.7w/m2
07/13/2011 0.26" 0.21" 0.00" 0.21" 86.5° 64.1° 75.9° 37.2% 5.2 MPH 314.3w/m2
07/14/2011 0.29" 0.24" 0.01" 0.24" 85.1° 59.3° 74.0° 30.4% 6.1 MPH 344.0w/m2
07/15/2011 0.26" 0.22" 0.01" 0.21" 85.6° 56.2° 71.1° 34.2% 4.3 MPH 343.8w/m2
07/16/2011 0.29" 0.24" 0.00" 0.24" 88.8° 57.3° 73.3° 30.2% 6.2 MPH 347.3w/m2
07/17/2011 0.27" 0.23" 0.00" 0.23" 93.5° 59.0° 76.4° 29.0% 4.6 MPH 344.4w/m2
07/18/2011 0.20" 0.17" 0.00" 0.17" 90.1° 72.5° 80.2° 37.3% 4.2 MPH 205.8w/m2
07/19/2011 0.25" 0.22" 0.00" 0.22" 90.8° 66.2° 78.4° 42.0% 4.4 MPH 287.4w/m2
07/20/2011 0.24" 0.20" 0.00" 0.20" 85.4° 54.8° 69.9° 39.6% 2.9 MPH 339.5w/m2
07/21/2011 0.25" 0.22" 0.01" 0.21" 88.1° 55.6° 71.7° 33.9% 3.7 MPH 334.9w/m2
07/22/2011 0.25" 0.22" 0.00" 0.22" 88.3° 57.8° 73.0° 32.6% 4.0 MPH 335.3w/m2
07/23/2011 0.24" 0.21" 0.01" 0.20" 87.6° 57.5° 71.7° 37.4% 3.3 MPH 334.7w/m2
07/24/2011 0.26" 0.23" 0.00" 0.23" 94.7° 60.5° 75.8° 30.6% 4.3 MPH 334.1w/m2
07/25/2011 0.26" 0.23" 0.01" 0.22" 91.2° 64.6° 77.2° 30.1% 6.1 MPH 268.0w/m2
07/26/2011 0.25" 0.22" 0.00" 0.22" 88.5° 63.4° 76.9° 40.6% 3.2 MPH 327.7w/m2
07/27/2011 0.22" 0.20" 0.00" 0.20" 85.2° 60.6° 73.3° 42.5% 2.6 MPH 312.7w/m2
07/28/2011 0.24" 0.21" 0.00" 0.21" 88.8° 59.5° 73.5° 40.9% 3.5 MPH 323.6w/m2
07/29/2011 0.25" 0.22" 0.00" 0.22" 91.4° 60.9° 75.1° 36.0% 4.0 MPH 323.4w/m2
07/30/2011 0.14" 0.13" 0.00" 0.13" 82.3° 62.9° 73.0° 41.8% 3.9 MPH 147.2w/m2
07/31/2011 0.15" 0.13" 0.17" 0.00" 84.5° 63.9° 72.4° 58.7% 2.8 MPH 163.1w/m2
Totals: 7.11" 6.06" 0.87" 5.36" 96.0° 53.9° 73.4° 41.3% 4.3 MPH 290.1w/m2